createdAt,value
2019-04-22T00:00:51.383Z,11.65
2019-04-22T00:03:33.022Z,11.57
2019-04-22T00:06:17.755Z,11.55
2019-04-22T00:08:56.053Z,11.51
2019-04-22T00:11:28.802Z,11.47
2019-04-22T00:14:01.257Z,11.43
2019-04-22T00:16:37.812Z,11.38
2019-04-22T00:19:15.438Z,11.34
2019-04-22T00:21:50.185Z,11.31
2019-04-22T00:24:20.130Z,11.25
2019-04-22T00:26:50.288Z,11.19
2019-04-22T00:29:44.818Z,11.15
2019-04-22T00:32:00.021Z,11.10
2019-04-22T00:34:35.929Z,11.06
2019-04-22T00:37:08.283Z,11.00
2019-04-22T00:39:50.259Z,10.94
2019-04-22T00:42:22.624Z,10.89
2019-04-22T00:44:51.750Z,10.83
2019-04-22T00:47:29.180Z,10.71
2019-04-22T00:50:14.462Z,10.58
2019-04-22T00:52:35.786Z,10.51
2019-04-22T00:57:42.489Z,10.36
2019-04-22T01:00:18.241Z,10.36
2019-04-22T01:02:49.781Z,10.35
2019-04-22T01:05:21.434Z,10.40
2019-04-22T01:07:57.026Z,10.42
2019-04-22T01:10:39.033Z,10.37
2019-04-22T01:13:06.656Z,10.28
2019-04-22T01:16:09.423Z,10.16
2019-04-22T01:18:15.710Z,10.18
2019-04-22T01:21:06.940Z,10.16
2019-04-22T01:23:27.847Z,10.17
2019-04-22T01:25:56.968Z,10.18
2019-04-22T01:28:30.392Z,10.19
2019-04-22T01:30:55.714Z,10.16
2019-04-22T01:33:33.427Z,10.01
2019-04-22T01:36:19.740Z,9.94
2019-04-22T01:38:58.169Z,9.89
2019-04-22T01:41:33.631Z,9.92
2019-04-22T01:44:19.419Z,9.85
2019-04-22T01:46:36.674Z,9.78
2019-04-22T01:49:18.921Z,9.73
2019-04-22T01:56:52.629Z,9.42
2019-04-22T01:59:23.989Z,9.34
2019-04-22T02:02:02.591Z,9.33
2019-04-22T02:04:37.618Z,9.33
2019-04-22T02:07:10.771Z,9.26
2019-04-22T02:09:46.650Z,9.30
2019-04-22T02:12:20.000Z,9.34
2019-04-22T02:14:53.916Z,9.33
2019-04-22T02:17:26.480Z,9.25
2019-04-22T02:19:57.583Z,9.09
2019-04-22T02:22:42.867Z,8.99
2019-04-22T02:25:09.463Z,8.94
2019-04-22T02:27:39.050Z,8.81
2019-04-22T02:30:06.083Z,8.74
2019-04-22T02:35:36.622Z,8.74
2019-04-22T02:37:54.514Z,8.73
2019-04-22T02:40:44.393Z,8.69
2019-04-22T02:43:14.540Z,8.64
2019-04-22T02:45:56.838Z,8.65
2019-04-22T02:48:26.682Z,8.65
2019-04-22T02:50:55.791Z,8.56
2019-04-22T02:53:58.545Z,8.46
2019-04-22T02:56:04.535Z,8.37
2019-04-22T02:58:37.424Z,8.53
2019-04-22T03:03:51.864Z,8.48
2019-04-22T03:07:05.443Z,8.43
2019-04-22T03:08:45.665Z,8.39
2019-04-22T03:11:18.656Z,8.51
2019-04-22T03:19:05.898Z,8.61
2019-04-22T03:21:33.775Z,8.63
2019-04-22T03:24:18.017Z,8.61
2019-04-22T03:29:41.458Z,8.56
2019-04-22T03:39:45.623Z,8.53
2019-04-22T03:45:02.855Z,8.47
2019-04-22T03:49:58.390Z,8.45
2019-04-22T03:52:20.692Z,8.43
2019-04-22T03:55:09.143Z,8.44
2019-04-22T04:00:08.482Z,8.40
2019-04-22T04:02:55.968Z,8.38
2019-04-22T04:05:17.039Z,8.38
2019-04-22T04:10:30.611Z,8.36
2019-04-22T04:15:23.568Z,8.31
2019-04-22T04:17:54.899Z,8.33
2019-04-22T04:28:36.082Z,8.36
2019-04-22T04:30:48.085Z,8.34
2019-04-22T04:33:25.019Z,8.38
2019-04-22T04:35:54.533Z,8.37
2019-04-22T04:38:28.954Z,8.40
2019-04-22T04:41:10.869Z,8.38
2019-04-22T04:43:46.612Z,8.37
2019-04-22T04:46:13.841Z,8.38
2019-04-22T04:48:56.162Z,8.36
2019-04-22T04:51:31.015Z,8.36
2019-04-22T04:53:58.240Z,8.33
2019-04-22T04:56:33.976Z,8.37
2019-04-22T04:59:05.267Z,8.40
2019-04-22T05:01:42.400Z,8.39
2019-04-22T05:04:14.231Z,8.45
2019-04-22T05:06:43.168Z,8.48
2019-04-22T05:11:53.952Z,8.54
2019-04-22T05:14:21.967Z,8.60
2019-04-22T05:16:54.828Z,8.63
2019-04-22T05:19:26.208Z,8.61
2019-04-22T05:21:58.027Z,8.63
2019-04-22T05:24:31.402Z,8.71
2019-04-22T05:27:10.635Z,8.77
2019-04-22T05:29:56.564Z,8.70
2019-04-22T05:32:09.293Z,8.69
2019-04-22T05:34:47.891Z,8.77
2019-04-22T05:37:20.766Z,8.81
2019-04-22T05:39:54.504Z,8.85
2019-04-22T05:42:17.829Z,8.92
2019-04-22T05:44:54.919Z,8.96
2019-04-22T05:47:28.199Z,9.03
2019-04-22T05:50:04.954Z,9.07
2019-04-22T05:52:42.050Z,9.03
2019-04-22T05:55:15.071Z,9.12
2019-04-22T05:57:51.094Z,9.19
2019-04-22T06:00:36.904Z,9.23
2019-04-22T06:02:56.881Z,9.28
2019-04-22T06:08:04.086Z,9.37
2019-04-22T06:13:13.952Z,9.45
2019-04-22T06:15:42.851Z,9.50
2019-04-22T06:18:23.901Z,9.58
2019-04-22T06:21:00.529Z,9.64
2019-04-22T06:23:41.736Z,9.67
2019-04-22T06:28:47.207Z,9.73
2019-04-22T06:31:16.135Z,9.78
2019-04-22T06:33:48.400Z,9.80
2019-04-22T06:36:23.319Z,9.81
2019-04-22T06:38:55.200Z,9.87
2019-04-22T06:41:28.384Z,9.94
2019-04-22T06:44:08.673Z,10.00
2019-04-22T06:46:36.728Z,10.02
2019-04-22T06:49:11.090Z,10.09
2019-04-22T06:51:37.637Z,10.14
2019-04-22T06:54:17.622Z,10.19
2019-04-22T06:56:49.207Z,10.22
2019-04-22T06:59:19.100Z,10.31
2019-04-22T07:04:31.751Z,10.41
2019-04-22T07:07:08.083Z,10.44
2019-04-22T07:09:41.452Z,10.50
2019-04-22T07:12:11.705Z,10.59
2019-04-22T07:14:50.461Z,10.66
2019-04-22T07:17:22.126Z,10.75
2019-04-22T07:19:48.212Z,10.85
2019-04-22T07:22:39.761Z,10.91
2019-04-22T07:24:59.054Z,10.98
2019-04-22T07:27:34.625Z,11.03
2019-04-22T07:33:06.199Z,11.15
2019-04-22T07:35:22.553Z,11.23
2019-04-22T07:38:06.191Z,11.30
2019-04-22T07:40:29.101Z,11.35
2019-04-22T07:42:57.106Z,11.41
2019-04-22T07:45:29.546Z,11.41
2019-04-22T07:48:15.250Z,11.45
2019-04-22T07:50:50.615Z,11.43
2019-04-22T07:53:10.638Z,11.43
2019-04-22T07:55:45.375Z,11.39
2019-04-22T07:58:22.981Z,11.39
2019-04-22T08:00:55.662Z,11.40
2019-04-22T08:03:29.361Z,11.43
2019-04-22T08:06:05.390Z,11.48
2019-04-22T08:08:33.962Z,11.48
2019-04-22T08:11:21.941Z,11.48
2019-04-22T08:13:42.560Z,11.54
2019-04-22T08:16:19.849Z,11.59
2019-04-22T08:18:47.524Z,11.75
2019-04-22T08:21:16.661Z,11.87
2019-04-22T08:23:56.936Z,11.98
2019-04-22T08:26:27.504Z,12.15
2019-04-22T08:29:06.794Z,12.29
2019-04-22T08:31:41.723Z,12.43
2019-04-22T08:34:13.702Z,12.59
2019-04-22T08:36:54.047Z,12.75
2019-04-22T08:39:20.165Z,12.87
2019-04-22T08:41:43.404Z,12.96
2019-04-22T08:44:27.589Z,13.05
2019-04-22T08:49:37.493Z,13.24
2019-04-22T08:52:08.805Z,13.31
2019-04-22T08:54:37.299Z,13.40
2019-04-22T08:57:10.587Z,13.46
2019-04-22T08:59:48.752Z,13.53
2019-04-22T09:04:48.327Z,13.57
2019-04-22T09:07:30.304Z,13.62
2019-04-22T09:09:55.415Z,13.60
2019-04-22T09:12:49.602Z,13.61
2019-04-22T09:15:07.716Z,13.69
2019-04-22T09:17:39.903Z,13.77
2019-04-22T09:20:15.085Z,13.86
2019-04-22T09:22:48.678Z,13.96
2019-04-22T09:25:17.203Z,14.04
2019-04-22T09:28:07.334Z,14.08
2019-04-22T09:30:37.394Z,14.10
2019-04-22T09:33:08.191Z,14.16
2019-04-22T09:35:41.495Z,14.23
2019-04-22T09:43:18.413Z,14.46
2019-04-22T09:45:47.920Z,14.51
2019-04-22T09:48:33.174Z,14.59
2019-04-22T09:53:41.709Z,14.66
2019-04-22T09:56:03.931Z,14.72
2019-04-22T09:58:40.035Z,14.74
2019-04-22T10:01:24.280Z,14.71
2019-04-22T10:06:29.419Z,14.69
2019-04-22T10:09:13.123Z,14.69
2019-04-22T10:11:32.600Z,14.62
2019-04-22T10:14:05.548Z,14.51
2019-04-22T10:19:11.033Z,14.43
2019-04-22T10:21:57.295Z,14.39
2019-04-22T10:24:30.108Z,14.34
2019-04-22T10:26:51.638Z,14.28
2019-04-22T10:29:28.901Z,14.22
2019-04-22T10:32:05.589Z,14.20
2019-04-22T10:34:23.547Z,14.22
2019-04-22T10:36:50.988Z,14.23
2019-04-22T10:39:18.372Z,14.24
2019-04-22T10:41:50.639Z,14.33
2019-04-22T10:44:23.633Z,14.35
2019-04-22T10:46:56.097Z,14.41
2019-04-22T10:49:28.777Z,14.45
2019-04-22T10:52:00.685Z,14.43
2019-04-22T10:54:33.631Z,14.44
2019-04-22T10:57:06.708Z,14.47
2019-04-22T10:59:38.634Z,14.48
2019-04-22T11:02:11.590Z,14.51
2019-04-22T11:04:43.963Z,14.55
2019-04-22T11:07:17.378Z,14.61
2019-04-22T11:09:59.064Z,14.66
2019-04-22T11:12:28.011Z,14.70
2019-04-22T11:14:58.205Z,14.75
2019-04-22T11:17:31.424Z,14.79
2019-04-22T11:20:03.818Z,14.86
2019-04-22T11:22:37.364Z,14.90
2019-04-22T11:25:09.838Z,14.98
2019-04-22T11:27:44.188Z,15.00
2019-04-22T11:30:19.998Z,15.05
2019-04-22T11:32:50.746Z,15.14
2019-04-22T11:35:23.686Z,15.22
2019-04-22T11:37:56.838Z,15.32
2019-04-22T11:40:37.140Z,15.40
2019-04-22T11:43:03.906Z,15.53
2019-04-22T11:45:37.115Z,15.61
2019-04-22T11:48:11.059Z,15.84
2019-04-22T11:50:43.966Z,15.98
2019-04-22T11:53:16.680Z,15.97
2019-04-22T11:55:49.029Z,15.96
2019-04-22T11:58:21.247Z,16.04
2019-04-22T12:00:53.813Z,16.19
2019-04-22T12:03:26.907Z,16.28
2019-04-22T12:06:01.874Z,16.43
2019-04-22T12:08:34.116Z,16.56
2019-04-22T12:11:07.906Z,16.68
2019-04-22T12:13:39.931Z,16.58
2019-04-22T12:16:11.950Z,16.68
2019-04-22T12:18:44.969Z,16.92
2019-04-22T12:21:17.152Z,17.33
2019-04-22T12:23:50.932Z,17.78
2019-04-22T12:26:24.949Z,18.32
2019-04-22T12:28:57.273Z,18.86
2019-04-22T12:31:29.397Z,19.38
2019-04-22T12:34:01.592Z,19.81
2019-04-22T12:36:33.667Z,20.30
2019-04-22T12:39:11.542Z,20.64
2019-04-22T12:41:44.323Z,21.04
2019-04-22T12:44:18.077Z,21.38
2019-04-22T12:46:50.333Z,21.83
2019-04-22T12:49:22.549Z,21.98
2019-04-22T12:51:54.814Z,22.38
2019-04-22T12:54:26.967Z,22.63
2019-04-22T12:56:59.766Z,23.00
2019-04-22T12:59:31.979Z,23.24
2019-04-22T13:02:04.974Z,23.43
2019-04-22T13:04:38.399Z,23.73
2019-04-22T13:07:11.536Z,24.02
2019-04-22T13:09:43.553Z,24.24
2019-04-22T13:12:15.455Z,24.48
2019-04-22T13:14:48.720Z,24.84
2019-04-22T13:17:20.946Z,24.74
2019-04-22T13:19:54.092Z,24.95
2019-04-22T13:22:27.037Z,25.18
2019-04-22T13:24:59.716Z,25.36
2019-04-22T13:27:33.020Z,25.57
2019-04-22T13:30:08.290Z,25.74
2019-04-22T13:32:40.663Z,25.91
2019-04-22T13:35:15.372Z,25.59
2019-04-22T13:37:48.781Z,25.79
2019-04-22T13:40:21.336Z,25.59
2019-04-22T13:42:53.532Z,25.73
2019-04-22T13:45:25.787Z,25.93
2019-04-22T13:48:16.671Z,26.01
2019-04-22T13:56:05.602Z,26.63
2019-04-22T13:58:29.121Z,26.89
2019-04-22T14:00:49.267Z,26.93
2019-04-22T14:03:26.799Z,26.99
2019-04-22T14:06:02.623Z,26.95
2019-04-22T14:08:35.351Z,27.14
2019-04-22T14:11:16.922Z,27.27
2019-04-22T14:13:41.900Z,27.48
2019-04-22T14:16:15.326Z,27.62
2019-04-22T14:18:47.750Z,27.68
2019-04-22T14:21:21.049Z,27.30
2019-04-22T14:23:54.099Z,27.39
2019-04-22T14:26:27.108Z,27.21
2019-04-22T14:28:59.963Z,27.45
2019-04-22T14:31:32.849Z,27.41
2019-04-22T14:34:07.326Z,27.61
2019-04-22T14:36:39.297Z,27.73
2019-04-22T14:39:12.292Z,27.83
2019-04-22T14:42:00.820Z,28.01
2019-04-22T14:47:15.775Z,28.33
2019-04-22T14:49:47.472Z,28.31
2019-04-22T14:52:21.262Z,28.35
2019-04-22T14:54:48.363Z,28.33
2019-04-22T14:57:07.322Z,28.49
2019-04-22T14:59:39.941Z,28.34
2019-04-22T15:02:13.955Z,28.57
2019-04-22T15:04:45.938Z,28.76
2019-04-22T15:07:19.084Z,28.96
2019-04-22T15:09:52.228Z,28.88
2019-04-22T15:12:31.829Z,28.71
2019-04-22T15:14:59.716Z,28.71
2019-04-22T15:17:38.780Z,28.63
2019-04-22T15:20:29.906Z,28.63
2019-04-22T15:23:02.393Z,28.71
2019-04-22T15:25:34.885Z,28.78
2019-04-22T15:28:06.964Z,28.79
2019-04-22T15:30:39.388Z,28.87
2019-04-22T15:33:11.785Z,28.97
2019-04-22T15:35:45.104Z,29.02
2019-04-22T15:38:17.746Z,29.39
2019-04-22T15:40:50.633Z,29.61
2019-04-22T15:43:24.211Z,29.61
2019-04-22T15:45:57.811Z,29.26
2019-04-22T15:48:32.236Z,29.20
2019-04-22T15:51:03.001Z,28.61
2019-04-22T15:53:35.784Z,28.79
2019-04-22T15:56:08.522Z,28.12
2019-04-22T15:58:41.893Z,27.68
2019-04-22T16:01:21.764Z,27.73
2019-04-22T16:03:47.409Z,28.01
2019-04-22T16:06:19.970Z,28.10
2019-04-22T16:08:52.144Z,28.43
2019-04-22T16:11:24.172Z,28.46
2019-04-22T16:13:56.721Z,28.53
2019-04-22T16:16:28.673Z,28.64
2019-04-22T16:19:00.701Z,28.63
2019-04-22T16:21:45.482Z,28.81
2019-04-22T16:24:11.897Z,28.97
2019-04-22T16:26:46.574Z,29.11
2019-04-22T16:29:19.205Z,28.93
2019-04-22T16:31:53.428Z,28.08
2019-04-22T16:34:25.425Z,27.39
2019-04-22T16:36:58.632Z,27.50
2019-04-22T16:39:32.899Z,27.45
2019-04-22T16:42:05.133Z,27.27
2019-04-22T16:44:38.701Z,27.13
2019-04-22T16:47:10.640Z,27.03
2019-04-22T16:49:43.693Z,26.72
2019-04-22T16:52:16.260Z,26.12
2019-04-22T16:54:48.537Z,25.50
2019-04-22T16:57:21.636Z,24.88
2019-04-22T16:59:54.890Z,24.36
2019-04-22T17:02:47.049Z,24.03
2019-04-22T17:05:36.036Z,23.65
2019-04-22T17:08:08.301Z,23.17
2019-04-22T17:10:40.268Z,22.77
2019-04-22T17:13:19.228Z,22.47
2019-04-22T17:15:47.274Z,22.11
2019-04-22T17:18:19.450Z,21.82
2019-04-22T17:20:52.871Z,21.53
2019-04-22T17:23:25.521Z,21.32
2019-04-22T17:25:58.633Z,21.15
2019-04-22T17:28:31.315Z,20.95
2019-04-22T17:31:04.549Z,20.73
2019-04-22T17:33:37.140Z,20.67
2019-04-22T17:36:09.495Z,20.79
2019-04-22T17:38:52.030Z,20.41
2019-04-22T17:41:24.651Z,20.16
2019-04-22T17:44:16.971Z,19.94
2019-04-22T17:46:40.245Z,19.72
2019-04-22T17:49:34.049Z,19.50
2019-04-22T17:52:21.038Z,19.30
2019-04-22T17:54:50.438Z,19.14
2019-04-22T17:57:23.961Z,18.93
2019-04-22T17:59:55.193Z,18.78
2019-04-22T18:02:26.860Z,18.62
2019-04-22T18:04:51.788Z,18.50
2019-04-22T18:07:41.290Z,18.32
2019-04-22T18:10:27.522Z,18.18
2019-04-22T18:12:53.135Z,18.08
2019-04-22T18:15:17.851Z,17.90
2019-04-22T18:18:03.656Z,17.80
2019-04-22T18:20:25.472Z,17.71
2019-04-22T18:22:54.813Z,17.58
2019-04-22T18:25:33.933Z,17.48
2019-04-22T18:28:13.505Z,17.40
2019-04-22T18:30:35.171Z,17.32
2019-04-22T18:33:20.831Z,17.25
2019-04-22T18:35:44.516Z,17.15
2019-04-22T18:38:34.679Z,17.07
2019-04-22T18:40:55.983Z,17.01
2019-04-22T18:43:32.941Z,16.92
2019-04-22T18:46:11.184Z,16.86
2019-04-22T18:48:38.913Z,16.77
2019-04-22T18:51:24.435Z,16.71
2019-04-22T18:53:54.098Z,16.58
2019-04-22T18:56:25.405Z,16.50
2019-04-22T18:58:53.828Z,16.42
2019-04-22T19:01:17.743Z,16.32
2019-04-22T19:04:01.679Z,16.21
2019-04-22T19:06:46.130Z,16.14
2019-04-22T19:09:20.269Z,16.06
2019-04-22T19:12:06.326Z,16.00
2019-04-22T19:14:30.053Z,15.94
2019-04-22T19:17:10.861Z,15.87
2019-04-22T19:22:06.709Z,15.77
2019-04-22T19:24:39.507Z,15.72
2019-04-22T19:27:18.752Z,15.68
2019-04-22T19:29:54.737Z,15.62
2019-04-22T19:32:23.013Z,15.53
2019-04-22T19:34:55.553Z,15.45
2019-04-22T19:37:27.731Z,15.39
2019-04-22T19:40:11.700Z,15.35
2019-04-22T19:42:49.602Z,15.34
2019-04-22T19:45:09.247Z,15.29
2019-04-22T19:47:53.564Z,15.26
2019-04-22T19:50:25.563Z,15.21
2019-04-22T19:53:02.020Z,15.16
2019-04-22T19:55:33.385Z,15.10
2019-04-22T19:58:04.124Z,15.05
2019-04-22T20:00:45.978Z,15.02
2019-04-22T20:03:36.451Z,14.99
2019-04-22T20:06:22.194Z,14.93
2019-04-22T20:08:59.712Z,14.89
2019-04-22T20:11:34.095Z,14.81
2019-04-22T20:14:10.964Z,14.75
2019-04-22T20:16:41.201Z,14.69
2019-04-22T20:19:23.573Z,14.66
2019-04-22T20:21:47.825Z,14.62
2019-04-22T20:24:11.719Z,14.56
2019-04-22T20:26:56.462Z,14.52
2019-04-22T20:29:35.262Z,14.46
2019-04-22T20:32:05.546Z,14.40
2019-04-22T20:34:41.785Z,14.37
2019-04-22T20:37:18.672Z,14.32
2019-04-22T20:39:49.109Z,14.30
2019-04-22T20:42:33.140Z,14.28
2019-04-22T20:44:52.125Z,14.25
2019-04-22T20:47:19.174Z,14.19
2019-04-22T20:50:02.259Z,14.12
2019-04-22T20:52:45.103Z,14.11
2019-04-22T20:55:02.637Z,14.10
2019-04-22T20:57:40.304Z,14.06
2019-04-22T21:00:11.715Z,13.99
2019-04-22T21:02:39.067Z,13.95
2019-04-22T21:05:14.560Z,13.94
2019-04-22T21:07:57.751Z,13.90
2019-04-22T21:10:22.498Z,13.84
2019-04-22T21:13:00.168Z,13.74
2019-04-22T21:15:39.572Z,13.72
2019-04-22T21:18:05.303Z,13.69
2019-04-22T21:20:43.134Z,13.66
2019-04-22T21:23:16.568Z,13.65
2019-04-22T21:25:39.569Z,13.59
2019-04-22T21:28:25.906Z,13.56
2019-04-22T21:30:52.048Z,13.53
2019-04-22T21:33:19.456Z,13.51
2019-04-22T21:36:16.759Z,13.47
2019-04-22T21:38:40.361Z,13.45
2019-04-22T21:41:09.895Z,13.37
2019-04-22T21:43:50.044Z,13.40
2019-04-22T21:46:19.278Z,13.37
2019-04-22T21:48:54.400Z,13.33
2019-04-22T21:51:31.670Z,13.28
2019-04-22T21:54:04.031Z,13.25
2019-04-22T21:57:04.420Z,13.23
2019-04-22T21:59:12.435Z,13.20
2019-04-22T22:04:20.667Z,13.13
2019-04-22T22:06:42.477Z,13.11
2019-04-22T22:09:31.238Z,13.09
2019-04-22T22:11:58.917Z,13.03
2019-04-22T22:14:36.738Z,13.00
2019-04-22T22:17:01.932Z,12.97
2019-04-22T22:19:43.571Z,12.96
2019-04-22T22:22:39.483Z,12.92
2019-04-22T22:24:50.141Z,12.88
2019-04-22T22:27:25.300Z,12.86
2019-04-22T22:30:15.118Z,12.79
2019-04-22T22:32:33.678Z,12.77
2019-04-22T22:35:03.001Z,12.75
2019-04-22T22:37:28.190Z,12.72
2019-04-22T22:40:00.936Z,12.67
2019-04-22T22:42:31.303Z,12.63
2019-04-22T22:45:07.774Z,12.61
2019-04-22T22:47:53.963Z,12.56
2019-04-22T22:50:28.499Z,12.54
2019-04-22T22:55:33.181Z,12.46
2019-04-22T22:58:10.403Z,12.39
2019-04-22T23:00:39.441Z,12.37
2019-04-22T23:03:46.602Z,12.33
2019-04-22T23:06:07.307Z,12.30
2019-04-22T23:11:05.233Z,12.30
2019-04-22T23:13:40.439Z,12.27
2019-04-22T23:16:00.478Z,12.25
2019-04-22T23:18:21.806Z,12.24
2019-04-22T23:20:55.772Z,12.19
2019-04-22T23:23:48.915Z,12.18
2019-04-22T23:26:48.153Z,12.14
2019-04-22T23:29:11.400Z,12.08
2019-04-22T23:31:46.896Z,12.03
2019-04-22T23:34:25.213Z,11.98
2019-04-22T23:37:16.678Z,11.99
2019-04-22T23:39:58.405Z,11.94
2019-04-22T23:42:27.348Z,11.91
2019-04-22T23:45:04.061Z,11.89
2019-04-22T23:47:35.136Z,11.86
2019-04-22T23:50:24.335Z,11.83
2019-04-22T23:52:53.047Z,11.80
2019-04-22T23:55:29.796Z,11.77
2019-04-22T23:58:07.983Z,11.72
